sensor_id;sensor_type;location;lat;lon;timestamp;P1;durP1;ratioP1;P2;durP2;ratioP2
79143;SDS011;68551;47.484;19.092;2023-03-14T00:02:18;8.68;;;5.45;;
79143;SDS011;68551;47.484;19.092;2023-03-14T00:05:28;10.90;;;6.03;;
79143;SDS011;68551;47.484;19.092;2023-03-14T00:08:30;9.10;;;4.85;;
79143;SDS011;68551;47.484;19.092;2023-03-14T00:11:35;9.63;;;5.93;;
79143;SDS011;68551;47.484;19.092;2023-03-14T00:14:37;8.55;;;5.85;;
79143;SDS011;68551;47.484;19.092;2023-03-14T00:17:44;9.65;;;5.43;;
79143;SDS011;68551;47.484;19.092;2023-03-14T00:20:46;9.20;;;5.68;;
79143;SDS011;68551;47.484;19.092;2023-03-14T00:23:51;12.40;;;6.03;;
79143;SDS011;68551;47.484;19.092;2023-03-14T00:26:53;10.32;;;5.82;;
79143;SDS011;68551;47.484;19.092;2023-03-14T00:29:57;12.20;;;7.05;;
79143;SDS011;68551;47.484;19.092;2023-03-14T00:32:59;9.88;;;5.57;;
79143;SDS011;68551;47.484;19.092;2023-03-14T00:36:06;9.10;;;6.05;;
79143;SDS011;68551;47.484;19.092;2023-03-14T00:39:15;9.77;;;5.88;;
79143;SDS011;68551;47.484;19.092;2023-03-14T00:42:22;10.38;;;5.82;;
79143;SDS011;68551;47.484;19.092;2023-03-14T00:45:25;11.73;;;5.80;;
79143;SDS011;68551;47.484;19.092;2023-03-14T00:48:27;12.88;;;6.13;;
79143;SDS011;68551;47.484;19.092;2023-03-14T00:51:37;11.00;;;5.68;;
79143;SDS011;68551;47.484;19.092;2023-03-14T00:54:39;9.35;;;5.72;;
79143;SDS011;68551;47.484;19.092;2023-03-14T00:57:44;9.25;;;5.38;;
79143;SDS011;68551;47.484;19.092;2023-03-14T01:00:46;11.45;;;6.22;;
79143;SDS011;68551;47.484;19.092;2023-03-14T01:03:52;11.20;;;6.28;;
79143;SDS011;68551;47.484;19.092;2023-03-14T01:06:55;10.77;;;6.03;;
79143;SDS011;68551;47.484;19.092;2023-03-14T01:10:04;10.68;;;6.13;;
79143;SDS011;68551;47.484;19.092;2023-03-14T01:13:09;8.80;;;5.57;;
79143;SDS011;68551;47.484;19.092;2023-03-14T01:16:14;10.65;;;6.43;;
79143;SDS011;68551;47.484;19.092;2023-03-14T01:19:22;10.15;;;6.32;;
79143;SDS011;68551;47.484;19.092;2023-03-14T01:22:25;8.82;;;5.53;;
79143;SDS011;68551;47.484;19.092;2023-03-14T01:25:30;10.73;;;6.32;;
79143;SDS011;68551;47.484;19.092;2023-03-14T01:28:34;9.60;;;6.10;;
79143;SDS011;68551;47.484;19.092;2023-03-14T01:31:42;10.60;;;6.22;;
79143;SDS011;68551;47.484;19.092;2023-03-14T01:34:47;10.88;;;6.13;;
79143;SDS011;68551;47.484;19.092;2023-03-14T01:37:50;10.25;;;6.18;;
79143;SDS011;68551;47.484;19.092;2023-03-14T01:40:56;9.57;;;6.38;;
79143;SDS011;68551;47.484;19.092;2023-03-14T01:44:01;8.85;;;6.32;;
79143;SDS011;68551;47.484;19.092;2023-03-14T01:47:06;11.23;;;6.85;;
79143;SDS011;68551;47.484;19.092;2023-03-14T01:50:09;11.25;;;6.38;;
79143;SDS011;68551;47.484;19.092;2023-03-14T01:53:19;11.48;;;6.15;;
79143;SDS011;68551;47.484;19.092;2023-03-14T01:56:23;10.70;;;6.50;;
79143;SDS011;68551;47.484;19.092;2023-03-14T01:59:29;13.00;;;7.30;;
79143;SDS011;68551;47.484;19.092;2023-03-14T02:02:37;12.30;;;7.93;;
79143;SDS011;68551;47.484;19.092;2023-03-14T02:05:45;11.88;;;6.95;;
79143;SDS011;68551;47.484;19.092;2023-03-14T02:08:53;13.30;;;7.68;;
79143;SDS011;68551;47.484;19.092;2023-03-14T02:11:59;9.75;;;6.38;;
79143;SDS011;68551;47.484;19.092;2023-03-14T02:15:15;11.02;;;6.22;;
79143;SDS011;68551;47.484;19.092;2023-03-14T02:18:32;13.40;;;6.60;;
79143;SDS011;68551;47.484;19.092;2023-03-14T02:22:14;13.18;;;7.40;;
79143;SDS011;68551;47.484;19.092;2023-03-14T02:25:26;12.05;;;7.50;;
79143;SDS011;68551;47.484;19.092;2023-03-14T02:28:33;12.70;;;7.03;;
79143;SDS011;68551;47.484;19.092;2023-03-14T02:31:37;10.23;;;6.68;;
79143;SDS011;68551;47.484;19.092;2023-03-14T02:34:46;10.38;;;6.70;;
79143;SDS011;68551;47.484;19.092;2023-03-14T02:37:59;12.10;;;7.03;;
79143;SDS011;68551;47.484;19.092;2023-03-14T02:41:15;10.60;;;7.13;;
79143;SDS011;68551;47.484;19.092;2023-03-14T02:44:31;10.10;;;6.00;;
79143;SDS011;68551;47.484;19.092;2023-03-14T02:47:36;12.25;;;6.43;;
79143;SDS011;68551;47.484;19.092;2023-03-14T02:50:45;8.63;;;5.85;;
79143;SDS011;68551;47.484;19.092;2023-03-14T02:56:56;8.52;;;6.18;;
79143;SDS011;68551;47.484;19.092;2023-03-14T02:59:59;10.15;;;7.35;;
79143;SDS011;68551;47.484;19.092;2023-03-14T03:03:07;12.25;;;7.45;;
79143;SDS011;68551;47.484;19.092;2023-03-14T03:06:11;11.85;;;7.32;;
79143;SDS011;68551;47.484;19.092;2023-03-14T03:09:14;13.02;;;7.20;;
79143;SDS011;68551;47.484;19.092;2023-03-14T03:12:18;10.77;;;6.93;;
79143;SDS011;68551;47.484;19.092;2023-03-14T03:15:23;10.55;;;7.25;;
79143;SDS011;68551;47.484;19.092;2023-03-14T03:18:26;13.43;;;6.90;;
79143;SDS011;68551;47.484;19.092;2023-03-14T03:21:28;11.57;;;6.53;;
79143;SDS011;68551;47.484;19.092;2023-03-14T03:24:33;11.55;;;6.95;;
79143;SDS011;68551;47.484;19.092;2023-03-14T03:27:36;10.23;;;6.72;;
79143;SDS011;68551;47.484;19.092;2023-03-14T03:30:42;10.52;;;7.18;;
79143;SDS011;68551;47.484;19.092;2023-03-14T03:33:46;11.13;;;6.43;;
79143;SDS011;68551;47.484;19.092;2023-03-14T03:36:48;12.00;;;6.65;;
79143;SDS011;68551;47.484;19.092;2023-03-14T03:39:53;13.60;;;7.50;;
79143;SDS011;68551;47.484;19.092;2023-03-14T03:42:58;12.18;;;7.00;;
79143;SDS011;68551;47.484;19.092;2023-03-14T03:46:04;11.60;;;7.25;;
79143;SDS011;68551;47.484;19.092;2023-03-14T03:49:13;11.38;;;6.95;;
79143;SDS011;68551;47.484;19.092;2023-03-14T03:52:18;11.23;;;6.70;;
79143;SDS011;68551;47.484;19.092;2023-03-14T03:55:22;10.40;;;6.57;;
79143;SDS011;68551;47.484;19.092;2023-03-14T03:58:25;8.73;;;5.78;;
79143;SDS011;68551;47.484;19.092;2023-03-14T04:01:32;7.35;;;6.00;;
79143;SDS011;68551;47.484;19.092;2023-03-14T04:04:37;9.00;;;5.75;;
79143;SDS011;68551;47.484;19.092;2023-03-14T04:07:40;11.75;;;6.55;;
79143;SDS011;68551;47.484;19.092;2023-03-14T04:10:53;8.25;;;5.75;;
79143;SDS011;68551;47.484;19.092;2023-03-14T04:14:08;11.63;;;6.68;;
79143;SDS011;68551;47.484;19.092;2023-03-14T04:17:13;9.55;;;6.53;;
79143;SDS011;68551;47.484;19.092;2023-03-14T04:20:18;13.27;;;6.45;;
79143;SDS011;68551;47.484;19.092;2023-03-14T04:23:21;8.93;;;6.28;;
79143;SDS011;68551;47.484;19.092;2023-03-14T04:26:29;9.05;;;5.63;;
79143;SDS011;68551;47.484;19.092;2023-03-14T04:29:31;11.55;;;6.15;;
79143;SDS011;68551;47.484;19.092;2023-03-14T04:32:38;10.45;;;5.97;;
79143;SDS011;68551;47.484;19.092;2023-03-14T04:35:46;10.85;;;5.95;;
79143;SDS011;68551;47.484;19.092;2023-03-14T04:38:57;10.88;;;6.20;;
79143;SDS011;68551;47.484;19.092;2023-03-14T04:42:00;10.70;;;6.00;;
79143;SDS011;68551;47.484;19.092;2023-03-14T04:45:02;12.95;;;6.70;;
79143;SDS011;68551;47.484;19.092;2023-03-14T04:48:08;9.90;;;6.47;;
79143;SDS011;68551;47.484;19.092;2023-03-14T04:51:11;12.10;;;6.75;;
79143;SDS011;68551;47.484;19.092;2023-03-14T04:54:13;10.90;;;6.45;;
79143;SDS011;68551;47.484;19.092;2023-03-14T04:57:19;10.75;;;6.60;;
79143;SDS011;68551;47.484;19.092;2023-03-14T05:00:24;12.68;;;6.72;;
79143;SDS011;68551;47.484;19.092;2023-03-14T05:03:40;13.90;;;6.97;;
79143;SDS011;68551;47.484;19.092;2023-03-14T05:07:13;16.02;;;6.45;;
79143;SDS011;68551;47.484;19.092;2023-03-14T05:10:54;12.73;;;6.85;;
79143;SDS011;68551;47.484;19.092;2023-03-14T05:14:16;11.23;;;6.20;;
79143;SDS011;68551;47.484;19.092;2023-03-14T05:17:40;10.70;;;6.38;;
79143;SDS011;68551;47.484;19.092;2023-03-14T05:21:03;16.15;;;6.55;;
79143;SDS011;68551;47.484;19.092;2023-03-14T05:24:26;9.82;;;6.75;;
79143;SDS011;68551;47.484;19.092;2023-03-14T05:27:37;9.85;;;5.78;;
79143;SDS011;68551;47.484;19.092;2023-03-14T05:30:57;12.82;;;6.20;;
79143;SDS011;68551;47.484;19.092;2023-03-14T05:34:38;11.07;;;5.85;;
79143;SDS011;68551;47.484;19.092;2023-03-14T05:37:49;8.25;;;5.70;;
79143;SDS011;68551;47.484;19.092;2023-03-14T05:41:09;11.20;;;6.10;;
79143;SDS011;68551;47.484;19.092;2023-03-14T05:44:29;8.65;;;5.93;;
79143;SDS011;68551;47.484;19.092;2023-03-14T05:47:59;8.32;;;5.80;;
79143;SDS011;68551;47.484;19.092;2023-03-14T05:51:24;9.45;;;5.95;;
79143;SDS011;68551;47.484;19.092;2023-03-14T05:54:46;7.38;;;5.50;;
79143;SDS011;68551;47.484;19.092;2023-03-14T05:58:14;10.07;;;5.70;;
79143;SDS011;68551;47.484;19.092;2023-03-14T06:01:33;18.50;;;6.32;;
79143;SDS011;68551;47.484;19.092;2023-03-14T06:04:49;9.90;;;5.80;;
79143;SDS011;68551;47.484;19.092;2023-03-14T06:07:52;8.13;;;4.88;;
79143;SDS011;68551;47.484;19.092;2023-03-14T06:10:57;9.20;;;5.60;;
79143;SDS011;68551;47.484;19.092;2023-03-14T06:14:04;6.45;;;5.10;;
79143;SDS011;68551;47.484;19.092;2023-03-14T06:17:06;8.20;;;5.40;;
79143;SDS011;68551;47.484;19.092;2023-03-14T06:20:16;9.63;;;5.53;;
79143;SDS011;68551;47.484;19.092;2023-03-14T06:23:19;8.57;;;5.35;;
79143;SDS011;68551;47.484;19.092;2023-03-14T06:26:21;8.93;;;5.72;;
79143;SDS011;68551;47.484;19.092;2023-03-14T06:29:25;6.57;;;5.32;;
79143;SDS011;68551;47.484;19.092;2023-03-14T06:32:30;8.48;;;5.38;;
79143;SDS011;68551;47.484;19.092;2023-03-14T06:35:36;7.20;;;4.88;;
79143;SDS011;68551;47.484;19.092;2023-03-14T06:38:39;7.03;;;5.07;;
79143;SDS011;68551;47.484;19.092;2023-03-14T06:41:42;10.75;;;6.10;;
79143;SDS011;68551;47.484;19.092;2023-03-14T06:44:45;10.20;;;5.90;;
79143;SDS011;68551;47.484;19.092;2023-03-14T06:47:48;8.90;;;6.00;;
79143;SDS011;68551;47.484;19.092;2023-03-14T06:50:57;8.90;;;5.55;;
79143;SDS011;68551;47.484;19.092;2023-03-14T06:54:05;7.97;;;5.70;;
79143;SDS011;68551;47.484;19.092;2023-03-14T06:57:07;7.80;;;5.55;;
79143;SDS011;68551;47.484;19.092;2023-03-14T07:00:10;11.35;;;6.63;;
79143;SDS011;68551;47.484;19.092;2023-03-14T07:03:14;12.02;;;7.40;;
79143;SDS011;68551;47.484;19.092;2023-03-14T07:06:21;11.90;;;6.05;;
79143;SDS011;68551;47.484;19.092;2023-03-14T07:09:27;10.35;;;6.25;;
79143;SDS011;68551;47.484;19.092;2023-03-14T07:12:33;11.52;;;5.53;;
79143;SDS011;68551;47.484;19.092;2023-03-14T07:15:38;9.23;;;6.00;;
79143;SDS011;68551;47.484;19.092;2023-03-14T07:21:50;11.23;;;5.90;;
79143;SDS011;68551;47.484;19.092;2023-03-14T07:24:56;11.90;;;6.00;;
79143;SDS011;68551;47.484;19.092;2023-03-14T07:28:01;14.57;;;6.68;;
79143;SDS011;68551;47.484;19.092;2023-03-14T07:31:05;10.50;;;5.47;;
79143;SDS011;68551;47.484;19.092;2023-03-14T07:34:08;7.88;;;5.32;;
79143;SDS011;68551;47.484;19.092;2023-03-14T07:37:14;9.48;;;5.78;;
79143;SDS011;68551;47.484;19.092;2023-03-14T07:40:19;14.88;;;6.78;;
79143;SDS011;68551;47.484;19.092;2023-03-14T07:43:22;10.15;;;5.65;;
79143;SDS011;68551;47.484;19.092;2023-03-14T07:46:24;9.55;;;5.43;;
79143;SDS011;68551;47.484;19.092;2023-03-14T07:49:26;10.15;;;5.57;;
79143;SDS011;68551;47.484;19.092;2023-03-14T07:52:33;8.63;;;5.63;;
79143;SDS011;68551;47.484;19.092;2023-03-14T07:55:36;10.80;;;6.10;;
79143;SDS011;68551;47.484;19.092;2023-03-14T07:58:40;11.10;;;5.50;;
79143;SDS011;68551;47.484;19.092;2023-03-14T08:01:43;9.77;;;5.95;;
79143;SDS011;68551;47.484;19.092;2023-03-14T08:04:45;10.48;;;5.55;;
79143;SDS011;68551;47.484;19.092;2023-03-14T08:07:47;8.60;;;5.30;;
79143;SDS011;68551;47.484;19.092;2023-03-14T08:10:53;10.52;;;5.93;;
79143;SDS011;68551;47.484;19.092;2023-03-14T08:14:03;9.52;;;5.88;;
79143;SDS011;68551;47.484;19.092;2023-03-14T08:17:07;11.15;;;5.72;;
79143;SDS011;68551;47.484;19.092;2023-03-14T08:20:11;14.98;;;5.75;;
79143;SDS011;68551;47.484;19.092;2023-03-14T08:23:18;10.88;;;5.72;;
79143;SDS011;68551;47.484;19.092;2023-03-14T08:26:20;11.57;;;5.65;;
79143;SDS011;68551;47.484;19.092;2023-03-14T08:29:22;10.52;;;5.78;;
79143;SDS011;68551;47.484;19.092;2023-03-14T08:32:27;10.95;;;5.60;;
79143;SDS011;68551;47.484;19.092;2023-03-14T08:35:31;12.23;;;5.18;;
79143;SDS011;68551;47.484;19.092;2023-03-14T08:38:33;14.57;;;6.05;;
79143;SDS011;68551;47.484;19.092;2023-03-14T08:41:40;9.18;;;5.13;;
79143;SDS011;68551;47.484;19.092;2023-03-14T08:44:44;9.77;;;6.05;;
79143;SDS011;68551;47.484;19.092;2023-03-14T08:47:47;12.30;;;5.65;;
79143;SDS011;68551;47.484;19.092;2023-03-14T08:50:49;9.70;;;5.40;;
79143;SDS011;68551;47.484;19.092;2023-03-14T08:53:54;7.00;;;5.00;;
79143;SDS011;68551;47.484;19.092;2023-03-14T08:56:56;8.95;;;4.78;;
79143;SDS011;68551;47.484;19.092;2023-03-14T08:59:59;9.20;;;4.90;;
79143;SDS011;68551;47.484;19.092;2023-03-14T09:03:01;7.32;;;4.78;;
79143;SDS011;68551;47.484;19.092;2023-03-14T09:06:05;7.78;;;4.32;;
79143;SDS011;68551;47.484;19.092;2023-03-14T09:09:08;6.82;;;4.75;;
79143;SDS011;68551;47.484;19.092;2023-03-14T09:12:13;6.28;;;4.50;;
79143;SDS011;68551;47.484;19.092;2023-03-14T09:15:16;9.48;;;5.00;;
79143;SDS011;68551;47.484;19.092;2023-03-14T09:18:18;9.70;;;5.18;;
79143;SDS011;68551;47.484;19.092;2023-03-14T09:21:21;9.27;;;4.47;;
79143;SDS011;68551;47.484;19.092;2023-03-14T09:24:23;8.45;;;4.30;;
79143;SDS011;68551;47.484;19.092;2023-03-14T09:27:26;6.95;;;4.97;;
79143;SDS011;68551;47.484;19.092;2023-03-14T09:30:28;7.55;;;4.80;;
79143;SDS011;68551;47.484;19.092;2023-03-14T09:33:36;13.95;;;5.38;;
79143;SDS011;68551;47.484;19.092;2023-03-14T09:39:46;10.07;;;4.70;;
79143;SDS011;68551;47.484;19.092;2023-03-14T09:42:51;11.00;;;4.70;;
79143;SDS011;68551;47.484;19.092;2023-03-14T09:45:55;8.85;;;5.25;;
79143;SDS011;68551;47.484;19.092;2023-03-14T09:49:08;6.88;;;4.60;;
79143;SDS011;68551;47.484;19.092;2023-03-14T09:52:17;6.18;;;4.35;;
79143;SDS011;68551;47.484;19.092;2023-03-14T09:55:28;8.43;;;4.65;;
79143;SDS011;68551;47.484;19.092;2023-03-14T09:58:30;12.40;;;5.50;;
79143;SDS011;68551;47.484;19.092;2023-03-14T10:01:35;8.63;;;4.50;;
79143;SDS011;68551;47.484;19.092;2023-03-14T10:04:37;8.25;;;4.10;;
79143;SDS011;68551;47.484;19.092;2023-03-14T10:07:48;10.50;;;5.25;;
79143;SDS011;68551;47.484;19.092;2023-03-14T10:10:51;7.68;;;4.53;;
79143;SDS011;68551;47.484;19.092;2023-03-14T10:17:15;9.60;;;4.97;;
79143;SDS011;68551;47.484;19.092;2023-03-14T10:23:43;6.75;;;4.13;;
79143;SDS011;68551;47.484;19.092;2023-03-14T10:27:00;7.40;;;3.00;;
79143;SDS011;68551;47.484;19.092;2023-03-14T10:30:06;5.95;;;2.47;;
79143;SDS011;68551;47.484;19.092;2023-03-14T10:33:29;3.63;;;1.90;;
79143;SDS011;68551;47.484;19.092;2023-03-14T10:36:40;7.70;;;2.20;;
79143;SDS011;68551;47.484;19.092;2023-03-14T10:39:46;8.63;;;2.20;;
79143;SDS011;68551;47.484;19.092;2023-03-14T10:42:48;5.53;;;2.25;;
79143;SDS011;68551;47.484;19.092;2023-03-14T10:45:57;4.50;;;2.03;;
79143;SDS011;68551;47.484;19.092;2023-03-14T10:49:04;5.57;;;1.80;;
79143;SDS011;68551;47.484;19.092;2023-03-14T10:52:15;3.58;;;1.85;;
79143;SDS011;68551;47.484;19.092;2023-03-14T10:55:42;8.00;;;2.45;;
79143;SDS011;68551;47.484;19.092;2023-03-14T11:01:58;9.15;;;2.20;;
79143;SDS011;68551;47.484;19.092;2023-03-14T11:08:49;5.43;;;1.90;;
79143;SDS011;68551;47.484;19.092;2023-03-14T11:12:02;6.07;;;2.10;;
79143;SDS011;68551;47.484;19.092;2023-03-14T11:15:34;2.72;;;1.80;;
79143;SDS011;68551;47.484;19.092;2023-03-14T11:22:28;5.93;;;2.08;;
79143;SDS011;68551;47.484;19.092;2023-03-14T11:25:45;6.22;;;2.60;;
79143;SDS011;68551;47.484;19.092;2023-03-14T11:39:17;5.30;;;1.83;;
79143;SDS011;68551;47.484;19.092;2023-03-14T11:42:22;5.15;;;1.95;;
79143;SDS011;68551;47.484;19.092;2023-03-14T11:45:30;4.63;;;1.80;;
79143;SDS011;68551;47.484;19.092;2023-03-14T11:48:38;3.38;;;1.80;;
79143;SDS011;68551;47.484;19.092;2023-03-14T11:51:50;4.43;;;2.35;;
79143;SDS011;68551;47.484;19.092;2023-03-14T11:58:27;4.18;;;1.98;;
79143;SDS011;68551;47.484;19.092;2023-03-14T12:01:47;3.78;;;2.05;;
79143;SDS011;68551;47.484;19.092;2023-03-14T12:12:02;5.18;;;1.83;;
79143;SDS011;68551;47.484;19.092;2023-03-14T12:15:18;6.13;;;1.80;;
79143;SDS011;68551;47.484;19.092;2023-03-14T12:21:51;5.55;;;1.77;;
79143;SDS011;68551;47.484;19.092;2023-03-14T12:24:58;3.53;;;1.70;;
79143;SDS011;68551;47.484;19.092;2023-03-14T12:34:38;3.65;;;1.70;;
79143;SDS011;68551;47.484;19.092;2023-03-14T12:37:47;4.97;;;1.95;;
79143;SDS011;68551;47.484;19.092;2023-03-14T12:41:04;3.22;;;1.85;;
79143;SDS011;68551;47.484;19.092;2023-03-14T12:50:46;4.22;;;1.83;;
79143;SDS011;68551;47.484;19.092;2023-03-14T13:00:59;4.32;;;1.98;;
79143;SDS011;68551;47.484;19.092;2023-03-14T13:04:04;3.67;;;1.90;;
79143;SDS011;68551;47.484;19.092;2023-03-14T13:07:12;3.22;;;1.73;;
79143;SDS011;68551;47.484;19.092;2023-03-14T13:10:45;5.50;;;2.42;;
79143;SDS011;68551;47.484;19.092;2023-03-14T13:13:57;7.30;;;2.40;;
79143;SDS011;68551;47.484;19.092;2023-03-14T13:17:04;3.63;;;1.80;;
79143;SDS011;68551;47.484;19.092;2023-03-14T13:20:36;3.65;;;2.20;;
79143;SDS011;68551;47.484;19.092;2023-03-14T13:23:53;3.58;;;1.77;;
79143;SDS011;68551;47.484;19.092;2023-03-14T13:27:17;3.00;;;1.85;;
79143;SDS011;68551;47.484;19.092;2023-03-14T13:30:26;5.38;;;2.13;;
79143;SDS011;68551;47.484;19.092;2023-03-14T13:33:41;3.25;;;1.77;;
79143;SDS011;68551;47.484;19.092;2023-03-14T13:36:45;6.25;;;2.25;;
79143;SDS011;68551;47.484;19.092;2023-03-14T13:39:51;4.00;;;2.25;;
79143;SDS011;68551;47.484;19.092;2023-03-14T13:43:32;6.75;;;2.88;;
79143;SDS011;68551;47.484;19.092;2023-03-14T13:46:38;4.38;;;1.85;;
79143;SDS011;68551;47.484;19.092;2023-03-14T13:49:42;5.85;;;2.08;;
79143;SDS011;68551;47.484;19.092;2023-03-14T13:52:46;6.95;;;2.95;;
79143;SDS011;68551;47.484;19.092;2023-03-14T13:56:00;4.57;;;2.00;;
79143;SDS011;68551;47.484;19.092;2023-03-14T13:59:25;7.47;;;2.38;;
79143;SDS011;68551;47.484;19.092;2023-03-14T14:02:40;4.65;;;2.00;;
79143;SDS011;68551;47.484;19.092;2023-03-14T14:05:45;4.30;;;1.95;;
79143;SDS011;68551;47.484;19.092;2023-03-14T14:08:47;4.53;;;2.10;;
79143;SDS011;68551;47.484;19.092;2023-03-14T14:11:57;4.95;;;2.92;;
79143;SDS011;68551;47.484;19.092;2023-03-14T14:18:23;5.70;;;2.47;;
79143;SDS011;68551;47.484;19.092;2023-03-14T14:21:33;4.72;;;2.40;;
79143;SDS011;68551;47.484;19.092;2023-03-14T14:24:40;4.18;;;2.47;;
79143;SDS011;68551;47.484;19.092;2023-03-14T14:27:44;5.78;;;2.65;;
79143;SDS011;68551;47.484;19.092;2023-03-14T14:30:59;5.68;;;2.15;;
79143;SDS011;68551;47.484;19.092;2023-03-14T14:34:03;17.52;;;4.47;;
79143;SDS011;68551;47.484;19.092;2023-03-14T14:37:14;7.88;;;2.50;;
79143;SDS011;68551;47.484;19.092;2023-03-14T14:40:25;5.53;;;2.97;;
79143;SDS011;68551;47.484;19.092;2023-03-14T14:43:30;4.03;;;2.70;;
79143;SDS011;68551;47.484;19.092;2023-03-14T14:46:38;7.22;;;3.22;;
79143;SDS011;68551;47.484;19.092;2023-03-14T14:49:43;6.00;;;3.13;;
79143;SDS011;68551;47.484;19.092;2023-03-14T14:52:46;7.28;;;3.55;;
79143;SDS011;68551;47.484;19.092;2023-03-14T14:55:50;6.55;;;4.03;;
79143;SDS011;68551;47.484;19.092;2023-03-14T14:58:59;6.50;;;3.58;;
79143;SDS011;68551;47.484;19.092;2023-03-14T15:02:35;8.18;;;3.50;;
79143;SDS011;68551;47.484;19.092;2023-03-14T15:05:39;9.18;;;4.13;;
79143;SDS011;68551;47.484;19.092;2023-03-14T15:08:42;7.00;;;4.00;;
79143;SDS011;68551;47.484;19.092;2023-03-14T15:11:50;6.93;;;3.92;;
79143;SDS011;68551;47.484;19.092;2023-03-14T15:14:58;8.50;;;4.00;;
79143;SDS011;68551;47.484;19.092;2023-03-14T15:18:08;8.68;;;4.38;;
79143;SDS011;68551;47.484;19.092;2023-03-14T15:21:15;8.40;;;4.53;;
79143;SDS011;68551;47.484;19.092;2023-03-14T15:24:22;6.25;;;4.13;;
79143;SDS011;68551;47.484;19.092;2023-03-14T15:27:27;8.55;;;4.15;;
79143;SDS011;68551;47.484;19.092;2023-03-14T15:30:35;8.45;;;3.83;;
79143;SDS011;68551;47.484;19.092;2023-03-14T15:33:39;17.00;;;4.40;;
79143;SDS011;68551;47.484;19.092;2023-03-14T15:36:42;8.40;;;4.20;;
79143;SDS011;68551;47.484;19.092;2023-03-14T15:39:44;7.25;;;3.85;;
79143;SDS011;68551;47.484;19.092;2023-03-14T15:42:49;7.10;;;3.90;;
79143;SDS011;68551;47.484;19.092;2023-03-14T15:45:52;6.78;;;4.00;;
79143;SDS011;68551;47.484;19.092;2023-03-14T15:48:54;10.20;;;4.40;;
79143;SDS011;68551;47.484;19.092;2023-03-14T15:51:57;9.52;;;4.85;;
79143;SDS011;68551;47.484;19.092;2023-03-14T15:54:59;7.82;;;4.50;;
79143;SDS011;68551;47.484;19.092;2023-03-14T15:58:02;7.32;;;4.32;;
79143;SDS011;68551;47.484;19.092;2023-03-14T16:01:04;9.85;;;3.33;;
79143;SDS011;68551;47.484;19.092;2023-03-14T16:04:07;4.75;;;2.75;;
79143;SDS011;68551;47.484;19.092;2023-03-14T16:07:09;7.55;;;2.60;;
79143;SDS011;68551;47.484;19.092;2023-03-14T16:10:12;4.47;;;2.28;;
79143;SDS011;68551;47.484;19.092;2023-03-14T16:13:15;3.00;;;1.90;;
79143;SDS011;68551;47.484;19.092;2023-03-14T16:16:17;5.03;;;2.63;;
79143;SDS011;68551;47.484;19.092;2023-03-14T16:19:23;4.45;;;2.30;;
79143;SDS011;68551;47.484;19.092;2023-03-14T16:22:27;4.18;;;2.40;;
79143;SDS011;68551;47.484;19.092;2023-03-14T16:25:37;3.70;;;2.10;;
79143;SDS011;68551;47.484;19.092;2023-03-14T16:28:41;3.65;;;1.90;;
79143;SDS011;68551;47.484;19.092;2023-03-14T16:31:48;4.03;;;2.60;;
79143;SDS011;68551;47.484;19.092;2023-03-14T16:34:53;2.92;;;2.10;;
79143;SDS011;68551;47.484;19.092;2023-03-14T16:38:01;4.25;;;2.05;;
79143;SDS011;68551;47.484;19.092;2023-03-14T16:41:12;3.83;;;2.58;;
79143;SDS011;68551;47.484;19.092;2023-03-14T16:44:16;3.90;;;2.80;;
79143;SDS011;68551;47.484;19.092;2023-03-14T16:47:18;5.75;;;2.30;;
79143;SDS011;68551;47.484;19.092;2023-03-14T16:50:25;4.25;;;1.92;;
79143;SDS011;68551;47.484;19.092;2023-03-14T16:53:28;3.42;;;2.13;;
79143;SDS011;68551;47.484;19.092;2023-03-14T16:56:31;4.85;;;2.13;;
79143;SDS011;68551;47.484;19.092;2023-03-14T16:59:37;3.05;;;2.10;;
79143;SDS011;68551;47.484;19.092;2023-03-14T17:02:42;4.03;;;2.13;;
79143;SDS011;68551;47.484;19.092;2023-03-14T17:05:45;5.10;;;2.05;;
79143;SDS011;68551;47.484;19.092;2023-03-14T17:08:51;5.75;;;2.35;;
79143;SDS011;68551;47.484;19.092;2023-03-14T17:11:57;3.95;;;1.80;;
79143;SDS011;68551;47.484;19.092;2023-03-14T17:14:59;3.25;;;1.80;;
79143;SDS011;68551;47.484;19.092;2023-03-14T17:18:04;4.57;;;2.10;;
79143;SDS011;68551;47.484;19.092;2023-03-14T17:21:07;6.35;;;2.30;;
79143;SDS011;68551;47.484;19.092;2023-03-14T17:24:10;3.72;;;2.65;;
79143;SDS011;68551;47.484;19.092;2023-03-14T17:27:12;3.40;;;1.80;;
79143;SDS011;68551;47.484;19.092;2023-03-14T17:30:21;4.03;;;1.80;;
79143;SDS011;68551;47.484;19.092;2023-03-14T17:33:26;4.32;;;1.75;;
79143;SDS011;68551;47.484;19.092;2023-03-14T17:36:28;4.25;;;2.20;;
79143;SDS011;68551;47.484;19.092;2023-03-14T17:39:33;3.78;;;2.38;;
79143;SDS011;68551;47.484;19.092;2023-03-14T17:42:40;3.95;;;1.90;;
79143;SDS011;68551;47.484;19.092;2023-03-14T17:45:42;3.45;;;1.60;;
79143;SDS011;68551;47.484;19.092;2023-03-14T17:48:45;3.15;;;1.63;;
79143;SDS011;68551;47.484;19.092;2023-03-14T17:51:49;3.70;;;1.90;;
79143;SDS011;68551;47.484;19.092;2023-03-14T17:54:51;3.70;;;2.55;;
79143;SDS011;68551;47.484;19.092;2023-03-14T17:57:58;2.25;;;1.55;;
79143;SDS011;68551;47.484;19.092;2023-03-14T18:01:22;3.53;;;1.58;;
79143;SDS011;68551;47.484;19.092;2023-03-14T18:04:27;2.83;;;1.90;;
79143;SDS011;68551;47.484;19.092;2023-03-14T18:07:32;3.15;;;1.70;;
79143;SDS011;68551;47.484;19.092;2023-03-14T18:10:35;2.70;;;1.95;;
79143;SDS011;68551;47.484;19.092;2023-03-14T18:13:37;5.70;;;1.88;;
79143;SDS011;68551;47.484;19.092;2023-03-14T18:16:40;2.65;;;1.80;;
79143;SDS011;68551;47.484;19.092;2023-03-14T18:19:49;3.13;;;1.60;;
79143;SDS011;68551;47.484;19.092;2023-03-14T18:22:52;3.30;;;1.83;;
79143;SDS011;68551;47.484;19.092;2023-03-14T18:25:54;3.28;;;1.58;;
79143;SDS011;68551;47.484;19.092;2023-03-14T18:29:04;3.95;;;1.95;;
79143;SDS011;68551;47.484;19.092;2023-03-14T18:32:09;2.92;;;1.50;;
79143;SDS011;68551;47.484;19.092;2023-03-14T18:35:13;2.20;;;1.50;;
79143;SDS011;68551;47.484;19.092;2023-03-14T18:38:18;3.33;;;1.52;;
79143;SDS011;68551;47.484;19.092;2023-03-14T18:41:24;2.88;;;1.70;;
79143;SDS011;68551;47.484;19.092;2023-03-14T18:44:27;1.75;;;1.33;;
79143;SDS011;68551;47.484;19.092;2023-03-14T18:47:29;3.03;;;1.70;;
79143;SDS011;68551;47.484;19.092;2023-03-14T18:50:36;1.75;;;1.40;;
79143;SDS011;68551;47.484;19.092;2023-03-14T18:53:39;2.17;;;1.52;;
79143;SDS011;68551;47.484;19.092;2023-03-14T18:59:47;2.22;;;1.83;;
79143;SDS011;68551;47.484;19.092;2023-03-14T19:02:49;2.05;;;1.60;;
79143;SDS011;68551;47.484;19.092;2023-03-14T19:05:54;2.50;;;1.77;;
79143;SDS011;68551;47.484;19.092;2023-03-14T19:08:59;2.85;;;1.65;;
79143;SDS011;68551;47.484;19.092;2023-03-14T19:12:03;3.40;;;1.83;;
79143;SDS011;68551;47.484;19.092;2023-03-14T19:15:05;2.72;;;1.95;;
79143;SDS011;68551;47.484;19.092;2023-03-14T19:18:12;2.25;;;1.90;;
79143;SDS011;68551;47.484;19.092;2023-03-14T19:21:24;3.33;;;1.70;;
79143;SDS011;68551;47.484;19.092;2023-03-14T19:24:36;3.33;;;1.55;;
79143;SDS011;68551;47.484;19.092;2023-03-14T19:27:39;2.47;;;1.40;;
79143;SDS011;68551;47.484;19.092;2023-03-14T19:30:41;3.10;;;1.75;;
79143;SDS011;68551;47.484;19.092;2023-03-14T19:33:46;3.33;;;1.50;;
79143;SDS011;68551;47.484;19.092;2023-03-14T19:36:51;3.53;;;1.90;;
79143;SDS011;68551;47.484;19.092;2023-03-14T19:39:56;2.78;;;1.95;;
79143;SDS011;68551;47.484;19.092;2023-03-14T19:43:01;3.13;;;2.20;;
79143;SDS011;68551;47.484;19.092;2023-03-14T19:46:03;3.72;;;2.10;;